Time;durP1;ratioP1;P1;durP2;ratioP2;P2;SDS_P1;SDS_P2;PMS_P1;PMS_P2;Temp;Humidity;BMP_temperature;BMP_pressure;BME280_temperature;BME280_humidity;BME280_pressure;Samples;Min_cycle;Max_cycle;Signal;HPM_P1;HPM_P2
2023/01/03 06:00:11;;;;;;;1.20;0.80;;;9.50;97.20;;;;;;1674190;29;20312;-70
2023/01/03 06:01:07;;;;;;;2.00;1.00;;;9.50;97.20;;;;;;1668748;29;20579;-70
2023/01/03 06:01:59;;;;;;;1.02;0.93;;;9.40;97.20;;;;;;1668776;29;20294;-70
2023/01/03 06:02:49;;;;;;;1.92;1.02;;;9.40;97.20;;;;;;1668229;29;20214;-70
2023/01/03 06:03:43;;;;;;;1.30;1.00;;;9.40;97.20;;;;;;1668693;29;20202;-72
2023/01/03 06:04:34;;;;;;;1.10;1.00;;;9.40;97.20;;;;;;1668572;29;20214;-72
2023/01/03 06:05:26;;;;;;;3.43;1.13;;;9.40;97.20;;;;;;1668712;29;20251;-72
2023/01/03 06:06:16;;;;;;;1.40;1.00;;;9.40;97.20;;;;;;1668623;29;20237;-72
2023/01/03 06:07:08;;;;;;;1.70;1.00;;;9.40;97.20;;;;;;1668217;29;20689;-72
2023/01/03 06:07:59;;;;;;;1.23;1.13;;;9.40;97.20;;;;;;1668669;29;20210;-71
2023/01/03 06:08:52;;;;;;;1.00;0.90;;;9.40;97.20;;;;;;1668547;29;20242;-72
2023/01/03 06:09:43;;;;;;;5.18;1.10;;;9.40;97.20;;;;;;1668721;29;20616;-72
2023/01/03 06:10:35;;;;;;;1.10;0.80;;;9.40;97.20;;;;;;1668508;29;20294;-70
2023/01/03 06:11:26;;;;;;;1.23;0.93;;;9.40;97.20;;;;;;1668618;29;20725;-70
2023/01/03 06:12:18;;;;;;;1.77;0.80;;;9.30;97.20;;;;;;1668165;29;20555;-71
2023/01/03 06:13:08;;;;;;;1.25;0.82;;;9.30;97.20;;;;;;1665228;29;20939;-70
2023/01/03 06:14:00;;;;;;;1.40;1.10;;;9.30;97.20;;;;;;1671813;29;20202;-70
2023/01/03 06:14:51;;;;;;;1.33;0.98;;;9.30;97.20;;;;;;1666465;29;20211;-70
2023/01/03 06:17:53;;;;;;;1.43;0.90;;;9.20;97.20;;;;;;1667836;29;20212;-70
2023/01/03 06:18:04;;;;;;;1.90;1.00;;;9.20;97.20;;;;;;1668274;29;20247;-70
2023/01/03 06:18:55;;;;;;;2.10;1.10;;;9.20;97.20;;;;;;1667193;29;20243;-72
2023/01/03 06:19:46;;;;;;;1.45;1.10;;;9.20;97.20;;;;;;1668267;29;20253;-71
2023/01/03 06:20:37;;;;;;;1.10;0.80;;;9.20;97.20;;;;;;1668446;29;20239;-71
2023/01/03 06:21:29;;;;;;;1.00;0.70;;;9.20;97.20;;;;;;1668234;29;20212;-71
2023/01/03 06:22:19;;;;;;;1.30;0.90;;;9.20;97.20;;;;;;1667951;29;20692;-71
2023/01/03 06:23:11;;;;;;;1.20;1.00;;;9.20;97.20;;;;;;1668493;29;20657;-74
2023/01/03 06:24:03;;;;;;;1.15;1.05;;;9.20;97.20;;;;;;1668522;29;20217;-72
2023/01/03 06:24:54;;;;;;;0.98;0.80;;;9.20;97.20;;;;;;1668140;29;20290;-72
2023/01/03 06:25:45;;;;;;;1.27;1.10;;;9.20;97.20;;;;;;1668512;29;20206;-71
2023/01/03 06:26:37;;;;;;;1.83;1.00;;;9.20;97.20;;;;;;1668498;29;20693;-72
2023/01/03 06:27:28;;;;;;;1.00;0.90;;;9.20;97.20;;;;;;1668274;29;20838;-71
2023/01/03 06:28:20;;;;;;;1.10;1.00;;;9.20;97.20;;;;;;1668339;29;20209;-71
2023/01/03 06:29:10;;;;;;;1.20;0.90;;;9.20;97.20;;;;;;1668134;29;20211;-70
2023/01/03 06:30:02;;;;;;;1.20;0.87;;;9.20;97.20;;;;;;1668096;29;20222;-71
2023/01/03 06:30:54;;;;;;;1.52;1.00;;;9.10;97.20;;;;;;1668224;29;20230;-70
2023/01/03 06:31:46;;;;;;;0.90;0.80;;;9.10;97.20;;;;;;1668490;29;20630;-70
2023/01/03 06:32:37;;;;;;;2.85;0.80;;;9.10;97.20;;;;;;1667742;29;20218;-70
2023/01/03 06:33:28;;;;;;;0.87;0.73;;;9.10;97.20;;;;;;1670310;29;20212;-71
2023/01/03 06:34:19;;;;;;;1.17;1.05;;;9.10;97.20;;;;;;1670051;29;20206;-71
2023/01/03 06:35:11;;;;;;;1.10;1.00;;;9.00;97.20;;;;;;1670580;29;20198;-71
2023/01/03 06:36:04;;;;;;;1.58;1.10;;;9.10;97.20;;;;;;1670788;29;20258;-71
2023/01/03 06:36:55;;;;;;;1.55;0.90;;;9.00;97.20;;;;;;1665810;29;20576;-70
2023/01/03 06:37:46;;;;;;;1.27;0.85;;;9.00;97.20;;;;;;1668901;29;20238;-70
2023/01/03 06:38:38;;;;;;;1.50;0.77;;;9.00;97.20;;;;;;1668063;29;20213;-70
2023/01/03 06:39:29;;;;;;;1.38;0.70;;;9.00;97.20;;;;;;1668410;29;20211;-70
2023/01/03 06:40:20;;;;;;;0.97;0.87;;;9.00;97.20;;;;;;1668444;29;20207;-70
2023/01/03 06:41:12;;;;;;;1.42;0.80;;;9.00;97.20;;;;;;1668377;29;20214;-70
2023/01/03 06:43:10;;;;;;;2.75;1.25;;;8.90;97.20;;;;;;1664973;29;20226;-70
2023/01/03 06:44:00;;;;;;;2.10;1.30;;;8.90;97.20;;;;;;1667707;29;20210;-71
2023/01/03 06:53:14;;;;;;;1.10;1.00;;;8.90;97.20;;;;;;1668513;29;20688;-70
2023/01/03 06:54:06;;;;;;;2.67;1.23;;;8.90;97.20;;;;;;1667921;29;20234;-71
2023/01/03 06:54:57;;;;;;;3.28;1.60;;;8.90;97.20;;;;;;1668365;29;20204;-70
2023/01/03 06:55:48;;;;;;;1.80;1.33;;;8.90;97.20;;;;;;1668378;29;20678;-70
2023/01/03 06:56:40;;;;;;;1.83;1.23;;;8.90;97.20;;;;;;1668128;29;20538;-71
2023/01/03 06:57:31;;;;;;;2.20;1.40;;;8.90;97.20;;;;;;1668149;29;20199;-71
2023/01/03 06:58:22;;;;;;;1.80;1.23;;;8.90;97.20;;;;;;1668505;29;20214;-70
2023/01/03 06:59:13;;;;;;;1.40;1.10;;;8.90;97.20;;;;;;1668394;29;20211;-70
2023/01/03 07:00:06;;;;;;;1.40;1.30;;;8.90;97.20;;;;;;1668490;29;20217;-70
2023/01/03 07:01:01;;;;;;;2.15;1.25;;;8.80;97.20;;;;;;1668219;29;20227;-70
2023/01/03 07:01:54;;;;;;;1.85;1.70;;;8.80;97.20;;;;;;1668293;29;20666;-71
2023/01/03 07:02:45;;;;;;;2.20;1.40;;;8.80;97.20;;;;;;1667527;29;20301;-71
2023/01/03 07:03:37;;;;;;;1.40;1.30;;;8.80;97.20;;;;;;1668234;29;20203;-70
2023/01/03 07:04:27;;;;;;;1.48;1.05;;;8.80;97.20;;;;;;1668467;29;20217;-70
2023/01/03 07:05:19;;;;;;;1.60;1.50;;;8.80;97.20;;;;;;1668447;29;20217;-70
2023/01/03 07:06:10;;;;;;;1.65;1.50;;;8.80;97.20;;;;;;1668266;29;20215;-70
2023/01/03 07:07:01;;;;;;;1.60;1.50;;;8.80;97.20;;;;;;1668202;29;20211;-71
2023/01/03 07:07:52;;;;;;;1.35;1.25;;;8.80;97.20;;;;;;1668101;29;20221;-73
2023/01/03 07:08:44;;;;;;;1.67;1.57;;;8.80;97.20;;;;;;1668400;29;20202;-73
2023/01/03 07:09:35;;;;;;;2.20;2.00;;;8.80;97.20;;;;;;1668247;29;20214;-73
2023/01/03 07:10:27;;;;;;;3.03;1.77;;;8.80;97.20;;;;;;1668399;29;20213;-73
2023/01/03 07:11:17;;;;;;;1.50;1.30;;;8.80;97.20;;;;;;1668271;29;20240;-70
2023/01/03 07:14:28;;;;;;;2.55;1.45;;;8.80;97.20;;;;;;1667339;29;20241;-71
2023/01/03 07:15:18;;;;;;;1.15;0.90;;;8.80;97.20;;;;;;1668126;29;20214;-71
2023/01/03 07:16:15;;;;;;;2.90;1.30;;;8.80;97.20;;;;;;1668399;29;20202;-71
2023/01/03 07:17:06;;;;;;;1.10;1.00;;;8.80;97.20;;;;;;1668265;29;20202;-70
2023/01/03 07:17:57;;;;;;;1.43;1.33;;;8.80;97.20;;;;;;1668045;29;20212;-70
2023/01/03 07:18:49;;;;;;;1.98;1.88;;;8.80;97.20;;;;;;1668264;29;20210;-71
2023/01/03 07:19:40;;;;;;;1.83;1.73;;;8.80;97.20;;;;;;1668360;29;20214;-71
2023/01/03 07:20:31;;;;;;;2.65;2.45;;;8.80;97.20;;;;;;1668183;29;20266;-70
2023/01/03 07:21:24;;;;;;;2.50;2.30;;;8.70;97.20;;;;;;1668300;29;20222;-70
2023/01/03 07:22:14;;;;;;;2.75;2.55;;;8.70;97.20;;;;;;1667830;29;20206;-71
2023/01/03 07:23:06;;;;;;;3.73;2.30;;;8.70;97.20;;;;;;1668341;29;20210;-70
2023/01/03 07:24:00;;;;;;;2.35;2.15;;;8.70;97.20;;;;;;1668128;29;20210;-71
2023/01/03 07:24:51;;;;;;;2.63;1.70;;;8.70;97.20;;;;;;1668306;29;20287;-71
2023/01/03 07:25:42;;;;;;;1.70;1.50;;;8.70;97.20;;;;;;1668292;29;20206;-70
2023/01/03 07:26:34;;;;;;;1.70;1.60;;;8.70;97.20;;;;;;1668187;29;20233;-70
2023/01/03 07:27:26;;;;;;;1.40;1.30;;;8.70;97.20;;;;;;1667986;29;20267;-70
2023/01/03 07:28:17;;;;;;;1.75;1.35;;;8.70;97.20;;;;;;1668276;29;20672;-70
2023/01/03 07:29:10;;;;;;;2.23;1.17;;;8.70;97.20;;;;;;1668431;29;20673;-70
2023/01/03 07:30:01;;;;;;;2.00;1.20;;;8.70;97.20;;;;;;1668329;29;20210;-70
2023/01/03 07:30:53;;;;;;;1.77;1.50;;;8.70;97.20;;;;;;1668029;29;20313;-70
2023/01/03 07:31:45;;;;;;;2.20;1.75;;;8.70;97.20;;;;;;1668287;29;20223;-70
2023/01/03 07:32:36;;;;;;;2.65;1.48;;;8.70;97.20;;;;;;1667752;29;20218;-70
2023/01/03 07:33:28;;;;;;;2.25;1.90;;;8.80;97.20;;;;;;1668163;29;20214;-70
2023/01/03 07:34:19;;;;;;;2.30;1.52;;;8.80;97.20;;;;;;1668291;29;20203;-70
2023/01/03 07:35:10;;;;;;;2.65;1.70;;;8.80;97.20;;;;;;1668288;29;20202;-70
2023/01/03 07:36:03;;;;;;;1.63;1.40;;;8.80;97.20;;;;;;1668284;29;20214;-71
2023/01/03 07:36:54;;;;;;;1.83;1.60;;;8.80;97.20;;;;;;1668057;29;20689;-71
2023/01/03 07:37:46;;;;;;;3.63;1.53;;;8.80;97.20;;;;;;1668101;29;20587;-70
2023/01/03 07:38:37;;;;;;;1.67;1.58;;;8.80;97.20;;;;;;1668228;29;20245;-70
2023/01/03 07:39:29;;;;;;;2.80;1.40;;;8.90;97.20;;;;;;1668378;29;20220;-71
2023/01/03 07:40:19;;;;;;;1.27;0.85;;;8.80;97.20;;;;;;1668114;29;20210;-71
2023/01/03 07:41:13;;;;;;;1.33;1.23;;;8.80;97.20;;;;;;1668294;29;20202;-71
2023/01/03 07:44:22;;;;;;;1.40;1.30;;;8.80;97.20;;;;;;1668284;29;20286;-71
2023/01/03 07:45:14;;;;;;;1.37;1.10;;;8.80;97.20;;;;;;1668304;29;20221;-71
2023/01/03 07:46:07;;;;;;;1.20;1.00;;;8.80;97.20;;;;;;1668283;29;20206;-71
2023/01/03 07:47:00;;;;;;;1.25;1.15;;;8.80;97.20;;;;;;1667910;29;20647;-71
2023/01/03 07:47:51;;;;;;;1.50;1.40;;;8.80;97.20;;;;;;1668067;29;20203;-71
2023/01/03 07:48:44;;;;;;;1.88;1.05;;;8.80;97.20;;;;;;1668355;29;20238;-71
2023/01/03 07:49:35;;;;;;;1.30;1.20;;;8.90;97.20;;;;;;1668175;29;20943;-71
2023/01/03 07:50:26;;;;;;;1.80;1.23;;;8.90;97.20;;;;;;1668269;29;20203;-71
2023/01/03 07:51:19;;;;;;;1.20;1.10;;;8.90;97.20;;;;;;1668187;29;20214;-71
2023/01/03 07:52:10;;;;;;;1.52;1.20;;;9.00;97.20;;;;;;1667797;29;20230;-71
2023/01/03 07:53:01;;;;;;;1.38;1.20;;;9.00;97.20;;;;;;1668222;29;20662;-71
2023/01/03 07:53:53;;;;;;;1.53;1.27;;;9.00;97.20;;;;;;1668136;29;20273;-71
2023/01/03 07:54:44;;;;;;;2.05;1.23;;;9.00;97.20;;;;;;1668192;29;20478;-70
2023/01/03 07:55:37;;;;;;;1.13;0.80;;;9.00;97.20;;;;;;1668056;29;20228;-71
2023/01/03 07:56:28;;;;;;;1.45;1.35;;;9.00;97.20;;;;;;1668246;29;20218;-71
2023/01/03 07:57:19;;;;;;;4.43;1.48;;;9.10;97.20;;;;;;1668001;29;20657;-71
2023/01/03 07:58:10;;;;;;;1.85;1.20;;;9.10;97.20;;;;;;1668241;29;20203;-71
2023/01/03 07:59:03;;;;;;;1.33;1.23;;;9.10;97.20;;;;;;1667899;29;20206;-71
2023/01/03 07:59:53;;;;;;;1.20;1.10;;;9.20;97.20;;;;;;1670536;29;20476;-71
2023/01/03 08:00:45;;;;;;;1.50;1.20;;;9.20;97.20;;;;;;1668116;29;20229;-71
2023/01/03 08:01:37;;;;;;;1.38;1.20;;;9.20;97.20;;;;;;1668213;29;20222;-71
2023/01/03 08:02:29;;;;;;;1.50;1.40;;;9.30;97.20;;;;;;1666532;29;20281;-71
2023/01/03 08:03:20;;;;;;;1.60;1.30;;;9.30;97.20;;;;;;1668239;29;20697;-71
2023/01/03 08:04:11;;;;;;;1.63;1.50;;;9.40;97.20;;;;;;1668129;29;20214;-71
2023/01/03 08:05:03;;;;;;;1.93;1.73;;;9.40;97.20;;;;;;1664358;29;20206;-71
2023/01/03 08:05:54;;;;;;;1.90;1.80;;;9.40;97.20;;;;;;1669324;29;20210;-71
2023/01/03 08:06:45;;;;;;;1.80;1.67;;;9.50;97.20;;;;;;1669168;29;20227;-71
2023/01/03 08:07:36;;;;;;;2.17;1.90;;;9.50;97.20;;;;;;1669372;29;20207;-72
2023/01/03 08:08:28;;;;;;;1.83;1.70;;;9.60;97.20;;;;;;1669487;29;20225;-71
2023/01/03 08:13:58;;;;;;;2.38;2.00;;;9.80;97.20;;;;;;1669209;29;20305;-71
2023/01/03 08:14:49;;;;;;;1.85;1.75;;;9.80;97.20;;;;;;1668970;29;20238;-71
2023/01/03 08:15:43;;;;;;;2.30;2.10;;;9.90;97.20;;;;;;1669335;29;20214;-71
2023/01/03 08:16:34;;;;;;;2.30;2.10;;;9.90;97.20;;;;;;1669145;29;20733;-71
2023/01/03 08:17:25;;;;;;;1.70;1.60;;;9.90;97.20;;;;;;1668952;29;20589;-71
2023/01/03 08:18:19;;;;;;;1.70;1.60;;;9.90;97.20;;;;;;1669349;29;20214;-71
2023/01/03 08:19:11;;;;;;;1.75;1.52;;;9.90;97.20;;;;;;1669238;29;20207;-71
2023/01/03 08:20:02;;;;;;;1.85;1.75;;;9.90;97.20;;;;;;1668928;29;20202;-71
2023/01/03 08:20:56;;;;;;;4.13;1.87;;;9.90;97.20;;;;;;1669180;29;20693;-71
2023/01/03 08:21:46;;;;;;;2.65;1.75;;;10.00;97.20;;;;;;1669282;29;20951;-71
2023/01/03 08:22:38;;;;;;;2.03;1.70;;;10.00;97.20;;;;;;1668331;29;20555;-71
2023/01/03 08:23:29;;;;;;;2.50;1.63;;;10.00;97.20;;;;;;1669078;29;20214;-71
2023/01/03 08:24:21;;;;;;;1.75;1.65;;;10.10;97.20;;;;;;1669416;29;20301;-71
2023/01/03 08:25:12;;;;;;;1.88;1.77;;;10.10;97.20;;;;;;1669035;29;20221;-71
2023/01/03 08:26:05;;;;;;;1.47;1.37;;;10.10;97.20;;;;;;1669220;29;20206;-71
2023/01/03 08:26:56;;;;;;;1.40;1.30;;;10.20;97.20;;;;;;1668800;29;20982;-71
2023/01/03 08:27:48;;;;;;;4.07;1.40;;;10.10;97.20;;;;;;1669206;29;20950;-71
2023/01/03 08:28:40;;;;;;;1.92;1.58;;;10.10;97.20;;;;;;1669326;29;20214;-71
2023/01/03 08:29:32;;;;;;;1.75;1.42;;;10.20;97.20;;;;;;1669022;29;20210;-71
2023/01/03 08:30:24;;;;;;;1.75;1.08;;;10.20;97.20;;;;;;1669072;29;20207;-71
2023/01/03 08:31:19;;;;;;;1.50;1.40;;;10.20;97.20;;;;;;1669135;29;20742;-71
2023/01/03 08:32:11;;;;;;;1.30;1.20;;;10.20;97.20;;;;;;1668727;29;20206;-71
2023/01/03 08:33:03;;;;;;;1.83;1.52;;;10.20;97.20;;;;;;1669026;29;20206;-71
2023/01/03 08:34:00;;;;;;;1.35;1.25;;;10.20;97.20;;;;;;1669005;29;20760;-71
2023/01/03 08:34:53;;;;;;;2.42;1.70;;;10.20;97.20;;;;;;1669109;29;20278;-71
2023/01/03 08:35:47;;;;;;;1.83;1.70;;;10.20;97.20;;;;;;1669106;29;20203;-71
2023/01/03 08:36:43;;;;;;;1.98;1.60;;;10.20;97.20;;;;;;1668926;29;20626;-71
2023/01/03 08:37:33;;;;;;;3.08;1.60;;;10.20;97.20;;;;;;1668849;29;20199;-71
2023/01/03 08:38:30;;;;;;;2.67;1.33;;;10.20;97.20;;;;;;1669280;29;20210;-71
2023/01/03 08:39:25;;;;;;;1.95;1.60;;;10.30;97.20;;;;;;1669152;29;20665;-71
2023/01/03 08:40:18;;;;;;;1.95;1.70;;;10.30;97.20;;;;;;1668815;29;20230;-71
2023/01/03 08:41:10;;;;;;;2.25;1.65;;;10.30;97.20;;;;;;1669129;29;20218;-71
2023/01/03 08:42:05;;;;;;;1.60;1.30;;;10.40;97.20;;;;;;1669139;29;20207;-71
2023/01/03 08:42:56;;;;;;;1.95;1.75;;;10.40;97.20;;;;;;1668426;29;20202;-71
2023/01/03 08:43:48;;;;;;;2.30;2.00;;;10.40;97.20;;;;;;1668949;29;20703;-71
2023/01/03 08:44:43;;;;;;;2.75;2.15;;;10.50;97.20;;;;;;1668991;29;20206;-71
2023/01/03 08:45:35;;;;;;;3.50;2.30;;;10.50;97.20;;;;;;1668955;29;20644;-71
2023/01/03 08:46:26;;;;;;;2.65;2.40;;;10.60;97.20;;;;;;1669277;29;20591;-73
2023/01/03 08:47:18;;;;;;;3.03;2.45;;;10.60;97.20;;;;;;1668437;29;20226;-71
2023/01/03 08:48:10;;;;;;;2.63;2.40;;;10.70;97.20;;;;;;1669043;29;20211;-71
2023/01/03 08:49:03;;;;;;;2.60;2.40;;;10.80;97.20;;;;;;1669156;29;20213;-71
2023/01/03 08:49:54;;;;;;;2.83;1.90;;;10.80;97.20;;;;;;1668928;29;20214;-71
2023/01/03 08:50:46;;;;;;;3.38;1.98;;;10.90;97.20;;;;;;1668981;29;20305;-71
2023/01/03 08:51:38;;;;;;;2.50;2.10;;;11.00;97.20;;;;;;1668789;29;20210;-71
2023/01/03 08:52:30;;;;;;;3.63;3.20;;;11.10;97.20;;;;;;1668510;29;20202;-71
2023/01/03 08:53:23;;;;;;;2.60;2.40;;;11.20;97.20;;;;;;1668751;29;20219;-71
2023/01/03 08:54:14;;;;;;;3.72;3.28;;;11.40;97.20;;;;;;1668878;29;20203;-71
2023/01/03 08:55:07;;;;;;;5.03;3.92;;;11.50;97.20;;;;;;1668948;29;20205;-71
2023/01/03 08:55:59;;;;;;;4.50;3.55;;;11.50;97.20;;;;;;1668883;29;20646;-71
2023/01/03 08:56:49;;;;;;;5.38;3.97;;;11.60;97.20;;;;;;1668736;29;20305;-71
2023/01/03 08:57:41;;;;;;;4.50;3.83;;;11.60;97.20;;;;;;1668761;29;20203;-71
2023/01/03 08:58:32;;;;;;;3.40;3.08;;;11.70;97.20;;;;;;1668969;29;20642;-71
2023/01/03 08:59:24;;;;;;;4.55;2.65;;;11.70;97.20;;;;;;1668972;29;20214;-71
2023/01/03 09:00:15;;;;;;;5.90;2.47;;;11.80;97.20;;;;;;1668495;29;20223;-71
2023/01/03 09:01:08;;;;;;;4.93;2.15;;;11.80;97.20;;;;;;1669081;29;20235;-71
2023/01/03 09:01:59;;;;;;;2.20;2.00;;;11.80;97.20;;;;;;1668945;29;20266;-71
2023/01/03 09:02:51;;;;;;;2.28;2.08;;;11.80;97.20;;;;;;1668547;29;20206;-71
2023/01/03 09:03:41;;;;;;;2.15;1.95;;;11.80;97.20;;;;;;1668598;29;20644;-71
2023/01/03 09:04:35;;;;;;;1.90;1.80;;;11.80;97.20;;;;;;1668867;29;20592;-71
2023/01/03 09:05:26;;;;;;;2.03;1.83;;;11.80;97.20;;;;;;1668774;29;20210;-71
2023/01/03 09:06:19;;;;;;;2.42;2.22;;;11.80;97.20;;;;;;1668977;29;20661;-71
2023/01/03 09:07:09;;;;;;;2.50;2.30;;;11.70;97.20;;;;;;1668406;29;20234;-71
2023/01/03 09:08:01;;;;;;;3.80;2.23;;;11.70;97.20;;;;;;1668960;29;20203;-71
2023/01/03 09:08:52;;;;;;;2.67;2.10;;;11.70;97.20;;;;;;1668997;29;20207;-71
2023/01/03 09:09:43;;;;;;;2.57;2.37;;;11.70;97.20;;;;;;1668872;29;20217;-71
2023/01/03 09:10:35;;;;;;;2.67;2.30;;;11.70;97.20;;;;;;1668712;29;20638;-71
2023/01/03 09:11:27;;;;;;;2.38;2.17;;;11.70;97.20;;;;;;1668881;29;20324;-71
2023/01/03 09:12:18;;;;;;;2.50;2.30;;;11.70;97.20;;;;;;1668381;29;20211;-71
2023/01/03 09:13:09;;;;;;;3.10;2.50;;;11.60;97.20;;;;;;1668845;29;20207;-71
2023/01/03 09:14:00;;;;;;;3.15;2.85;;;11.60;97.20;;;;;;1668500;29;20467;-71
2023/01/03 09:14:52;;;;;;;3.83;2.70;;;11.60;97.20;;;;;;1668772;29;20194;-71
2023/01/03 09:15:44;;;;;;;3.00;2.70;;;11.60;97.20;;;;;;1668770;29;20455;-71
2023/01/03 09:16:35;;;;;;;3.33;2.42;;;11.60;97.20;;;;;;1668009;29;20221;-71
2023/01/03 09:17:28;;;;;;;2.75;2.55;;;11.60;97.20;;;;;;1667741;29;20259;-71
2023/01/03 09:18:19;;;;;;;3.67;3.03;;;11.50;97.20;;;;;;1668506;29;20229;-71
2023/01/03 09:19:11;;;;;;;2.70;2.50;;;11.50;97.20;;;;;;1668704;29;20224;-71
2023/01/03 09:20:04;;;;;;;2.38;2.17;;;11.50;97.20;;;;;;1668661;29;20210;-71
2023/01/03 09:20:55;;;;;;;2.60;2.40;;;11.60;97.20;;;;;;1668832;29;20230;-71
2023/01/03 09:21:47;;;;;;;5.10;2.50;;;11.60;97.20;;;;;;1668785;29;20206;-71
2023/01/03 09:22:38;;;;;;;2.92;2.50;;;11.70;97.20;;;;;;1668391;29;20206;-71
2023/01/03 09:23:30;;;;;;;4.53;2.47;;;11.70;97.20;;;;;;1668381;29;20207;-71
2023/01/03 09:24:21;;;;;;;2.25;2.15;;;11.80;97.20;;;;;;1668790;29;20572;-71
2023/01/03 09:25:12;;;;;;;2.10;1.90;;;11.80;97.20;;;;;;1668600;29;20207;-71
2023/01/03 09:26:04;;;;;;;2.72;1.70;;;11.80;97.20;;;;;;1668856;29;20218;-71
2023/01/03 09:26:56;;;;;;;1.95;1.70;;;11.90;97.20;;;;;;1668521;29;20217;-71
2023/01/03 09:27:47;;;;;;;2.28;2.08;;;11.90;97.20;;;;;;1668645;29;20575;-71
2023/01/03 09:28:39;;;;;;;2.22;1.85;;;12.00;97.20;;;;;;1668833;29;20263;-71
2023/01/03 09:29:30;;;;;;;2.60;2.40;;;12.00;97.20;;;;;;1668740;29;20700;-71
2023/01/03 09:30:21;;;;;;;2.07;1.97;;;12.10;97.20;;;;;;1668456;29;20572;-71
2023/01/03 09:31:12;;;;;;;2.30;2.10;;;12.10;97.20;;;;;;1668822;29;20689;-71
2023/01/03 09:32:04;;;;;;;4.23;2.00;;;12.20;97.20;;;;;;1668743;29;20586;-71
2023/01/03 09:32:58;;;;;;;2.60;2.40;;;12.30;97.20;;;;;;1668357;29;20451;-71
2023/01/03 09:33:49;;;;;;;2.90;2.55;;;12.30;97.20;;;;;;1668244;29;20214;-71
2023/01/03 09:34:40;;;;;;;2.90;2.70;;;12.40;97.20;;;;;;1668871;29;20214;-71
2023/01/03 09:35:33;;;;;;;2.70;2.40;;;12.50;97.20;;;;;;1668373;29;20209;-71
2023/01/03 09:36:25;;;;;;;2.70;2.50;;;12.60;97.20;;;;;;1668851;29;20282;-71
2023/01/03 09:37:16;;;;;;;2.50;2.10;;;12.70;97.20;;;;;;1668366;29;20672;-71
2023/01/03 09:38:08;;;;;;;2.10;1.90;;;12.90;97.20;;;;;;1668847;29;20218;-71
2023/01/03 09:38:59;;;;;;;2.20;2.00;;;13.00;97.20;;;;;;1668816;29;20222;-71
2023/01/03 09:39:51;;;;;;;2.93;2.17;;;13.10;97.20;;;;;;1668748;29;20253;-71
2023/01/03 09:40:44;;;;;;;3.65;1.90;;;13.30;97.20;;;;;;1668613;29;20715;-71
2023/01/03 09:41:39;;;;;;;1.98;1.60;;;13.50;97.20;;;;;;1668575;29;20285;-71
2023/01/03 09:43:44;;;;;;;1.95;1.60;;;13.90;97.20;;;;;;1668591;29;20190;-71
2023/01/03 09:44:36;;;;;;;1.90;1.70;;;14.20;97.20;;;;;;1668535;29;20210;-71
2023/01/03 09:45:31;;;;;;;1.88;1.40;;;14.50;97.20;;;;;;1668557;29;20331;-71
2023/01/03 09:46:23;;;;;;;2.35;1.85;;;14.80;97.20;;;;;;1668671;29;20566;-71
2023/01/03 09:47:20;;;;;;;2.13;1.92;;;15.10;97.20;;;;;;1668178;29;20210;-71
2023/01/03 09:48:14;;;;;;;2.40;1.75;;;15.50;97.20;;;;;;1668703;29;20597;-71
2023/01/03 09:49:07;;;;;;;4.90;2.05;;;15.90;97.20;;;;;;1668683;29;20209;-71
2023/01/03 09:49:57;;;;;;;2.30;1.83;;;16.50;97.20;;;;;;1668596;29;20218;-71
2023/01/03 09:50:51;;;;;;;1.50;1.40;;;17.10;97.20;;;;;;1668538;29;20222;-71
2023/01/03 10:04:46;;;;;;;1.20;1.10;;;21.20;97.20;;;;;;1668162;29;20584;-71
2023/01/03 10:05:54;;;;;;;1.77;1.45;;;21.40;97.20;;;;;;1668205;29;20207;-71
2023/01/03 10:06:56;;;;;;;1.60;1.50;;;21.40;97.20;;;;;;1668392;29;20254;-71
2023/01/03 10:08:03;;;;;;;2.17;1.73;;;21.50;97.20;;;;;;1668093;29;20215;-71
2023/01/03 10:09:09;;;;;;;1.73;1.63;;;21.60;97.20;;;;;;1668733;29;20187;-71
2023/01/03 10:10:08;;;;;;;1.60;1.50;;;21.60;97.20;;;;;;1668290;29;20206;-71
2023/01/03 10:11:06;;;;;;;2.17;1.67;;;21.60;97.20;;;;;;1668399;29;20227;-72
2023/01/03 10:12:07;;;;;;;1.58;1.40;;;21.80;97.20;;;;;;1668397;29;20214;-71
2023/01/03 10:13:08;;;;;;;7.07;1.70;;;22.10;97.20;;;;;;1668536;29;20191;-72
2023/01/03 10:14:12;;;;;;;3.33;1.60;;;22.30;97.20;;;;;;1668426;29;20234;-71
2023/01/03 10:15:18;;;;;;;2.40;1.50;;;22.50;97.20;;;;;;1668355;29;20375;-71
2023/01/03 10:16:19;;;;;;;1.83;1.73;;;22.80;97.20;;;;;;1662476;29;20211;-71
2023/01/03 10:17:21;;;;;;;1.98;1.50;;;22.80;97.20;;;;;;1662213;29;20191;-71
2023/01/03 10:18:34;;;;;;;2.17;1.50;;;22.90;97.20;;;;;;1662395;29;20194;-71
2023/01/03 10:19:48;;;;;;;1.33;1.20;;;22.90;97.20;;;;;;1662451;29;20200;-72
2023/01/03 10:20:46;;;;;;;1.27;1.17;;;22.80;97.20;;;;;;1665636;29;20246;-71
2023/01/03 10:21:49;;;;;;;1.40;1.25;;;22.70;97.20;;;;;;1668282;29;20207;-71
2023/01/03 10:22:40;;;;;;;1.70;1.35;;;22.50;97.20;;;;;;1667928;29;20211;-72
2023/01/03 10:23:32;;;;;;;2.10;1.17;;;22.40;97.20;;;;;;1668600;29;20210;-71
2023/01/03 10:24:27;;;;;;;2.38;1.45;;;22.40;97.20;;;;;;1668835;29;20225;-71
2023/01/03 10:25:21;;;;;;;1.90;1.23;;;22.60;97.20;;;;;;1668989;29;20293;-71
2023/01/03 10:26:12;;;;;;;1.52;1.00;;;22.80;97.20;;;;;;1662740;29;20214;-71
2023/01/03 10:27:12;;;;;;;1.20;0.90;;;23.00;97.20;;;;;;1662632;29;20343;-71
2023/01/03 10:28:12;;;;;;;1.33;1.23;;;23.20;97.20;;;;;;1668799;29;20488;-71
2023/01/03 10:29:03;;;;;;;1.13;1.02;;;23.40;97.20;;;;;;1668406;29;20195;-72
2023/01/03 10:29:59;;;;;;;1.87;1.20;;;23.70;97.20;;;;;;1668586;29;20293;-72
2023/01/03 10:31:02;;;;;;;1.17;1.08;;;24.10;97.20;;;;;;1666483;29;20637;-71
2023/01/03 10:32:12;;;;;;;1.20;1.10;;;24.70;97.20;;;;;;1668606;29;20195;-71
2023/01/03 10:33:22;;;;;;;1.30;1.10;;;25.40;97.20;;;;;;1668622;29;20662;-71
2023/01/03 10:34:12;;;;;;;1.35;1.25;;;25.80;97.20;;;;;;1668481;29;20236;-71
2023/01/03 10:35:20;;;;;;;1.57;1.47;;;26.10;97.20;;;;;;1668523;29;20206;-72
2023/01/03 10:36:12;;;;;;;1.70;1.10;;;26.30;97.10;;;;;;1668463;29;20689;-71
2023/01/03 10:37:16;;;;;;;1.08;0.98;;;26.40;96.70;;;;;;1668481;29;20234;-71
2023/01/03 10:38:08;;;;;;;1.90;0.93;;;26.40;95.80;;;;;;1668349;29;20662;-71
2023/01/03 10:39:05;;;;;;;1.50;0.90;;;26.40;96.10;;;;;;1668405;29;20203;-72
2023/01/03 10:40:02;;;;;;;1.08;0.98;;;26.20;95.70;;;;;;1668412;29;20593;-71
2023/01/03 10:40:57;;;;;;;1.55;1.20;;;26.00;95.60;;;;;;1668146;29;20754;-71
2023/01/03 10:41:51;;;;;;;1.90;1.00;;;25.80;95.90;;;;;;1668624;29;20203;-71
2023/01/03 10:42:44;;;;;;;1.38;1.10;;;25.70;96.00;;;;;;1667886;29;20211;-72
2023/01/03 10:43:39;;;;;;;1.15;0.98;;;25.80;96.10;;;;;;1668367;29;20238;-71
2023/01/03 10:44:31;;;;;;;1.10;0.98;;;25.90;96.10;;;;;;1668464;29;20222;-73
2023/01/03 10:45:23;;;;;;;1.65;1.10;;;25.90;95.60;;;;;;1668214;29;20202;-72
2023/01/03 10:46:17;;;;;;;2.00;1.10;;;25.80;95.60;;;;;;1668256;29;20225;-72
2023/01/03 10:47:09;;;;;;;1.92;1.00;;;25.80;95.70;;;;;;1668283;29;20222;-71
2023/01/03 10:48:01;;;;;;;1.65;0.90;;;25.80;95.50;;;;;;1668037;29;20653;-71
2023/01/03 10:48:56;;;;;;;1.38;0.90;;;26.00;95.10;;;;;;1668222;29;20685;-71
2023/01/03 10:49:46;;;;;;;1.10;1.00;;;26.40;94.60;;;;;;1667910;29;20206;-72
2023/01/03 10:50:38;;;;;;;1.83;0.90;;;26.90;94.00;;;;;;1668228;29;20231;-72
2023/01/03 10:51:32;;;;;;;2.08;1.35;;;27.60;93.00;;;;;;1668082;29;20690;-71
2023/01/03 10:52:31;;;;;;;1.60;1.10;;;28.20;91.60;;;;;;1667765;29;20683;-71
2023/01/03 10:53:22;;;;;;;1.10;1.00;;;28.90;90.50;;;;;;1668426;29;20575;-72
2023/01/03 10:54:35;;;;;;;1.20;0.90;;;29.50;89.20;;;;;;1668197;29;20598;-71
2023/01/03 10:55:27;;;;;;;1.73;1.08;;;30.20;87.90;;;;;;1668190;29;20199;-71
2023/01/03 10:56:20;;;;;;;1.20;1.10;;;30.80;87.50;;;;;;1668079;29;20293;-72
2023/01/03 10:57:36;;;;;;;1.00;0.90;;;31.20;86.50;;;;;;1668180;29;20215;-72
2023/01/03 10:58:28;;;;;;;1.30;0.90;;;32.00;84.70;;;;;;1662244;29;20283;-72
2023/01/03 10:59:22;;;;;;;1.73;0.90;;;32.20;84.20;;;;;;1662109;29;20222;-71
2023/01/03 11:00:27;;;;;;;2.90;1.00;;;32.70;83.50;;;;;;1661933;29;20279;-71
2023/01/03 11:01:22;;;;;;;1.80;0.90;;;33.30;81.80;;;;;;1667973;29;20210;-71
2023/01/03 11:02:15;;;;;;;2.38;0.90;;;33.80;81.30;;;;;;1667865;29;20214;-72
2023/01/03 11:03:14;;;;;;;1.10;0.63;;;33.90;80.40;;;;;;1668324;29;20203;-71
2023/01/03 11:04:08;;;;;;;1.30;0.80;;;33.60;79.30;;;;;;1668342;29;20326;-72
2023/01/03 11:05:11;;;;;;;0.85;0.70;;;32.90;79.70;;;;;;1668259;29;20654;-72
2023/01/03 11:06:14;;;;;;;2.67;0.90;;;32.20;80.00;;;;;;1668228;29;20258;-72
2023/01/03 11:07:12;;;;;;;1.45;0.85;;;32.60;80.20;;;;;;1668059;29;20210;-72
2023/01/03 11:08:13;;;;;;;1.00;0.90;;;33.30;79.70;;;;;;1668290;29;20441;-71
2023/01/03 11:09:09;;;;;;;1.88;0.80;;;34.30;78.80;;;;;;1668360;29;20191;-72
2023/01/03 11:10:01;;;;;;;1.10;0.80;;;35.50;77.20;;;;;;1668213;29;20211;-72
2023/01/03 11:10:55;;;;;;;1.67;1.00;;;36.40;76.00;;;;;;1667945;29;20229;-72
2023/01/03 11:11:53;;;;;;;1.55;0.90;;;37.20;74.70;;;;;;1668381;29;20675;-72
2023/01/03 11:12:45;;;;;;;1.75;0.90;;;38.00;73.10;;;;;;1667756;29;20234;-72